EWG3C LEPA-GCHI
Flight info
| Callsign | EWG3C |
|---|---|
| Flight time | 1h 28m |
| Altitude | 37000 |
| Route | BAVER DCT ALT DCT ROLAS DCT MGA DCT VJF DCT RUNAX UL82 IBALU DCT BRICK DCT GOMER |
| Aircraft | A320/M-SDE3FGHIRWY/LB1 |
Departure
| Time | 2026-04-12 11:42 |
|---|---|
| Airport | Palma de Mallorca Airport (LEPA) |
Arrival
| Time | 2026-04-12 13:10 |
|---|---|
| Airport | El Hierro Airport (GCHI) |
| Time | Latitude | Longitude | Altitude | Speed | Heading |
|---|---|---|---|---|---|
| 2026-04-12 11:16 | 39.54851 | 2.73836 | 39 ft | 0 kts | 268° |
| 2026-04-12 11:30 | 39.54851 | 2.73837 | 38 ft | 0 kts | 268° |
| 2026-04-12 11:32 | 39.54852 | 2.73847 | 38 ft | 2 kts | 268° |
| 2026-04-12 11:32 | 39.54852 | 2.73869 | 38 ft | 2 kts | 268° |
| 2026-04-12 11:33 | 39.54853 | 2.73891 | 38 ft | 2 kts | 268° |
| 2026-04-12 11:33 | 39.54853 | 2.73913 | 38 ft | 2 kts | 268° |
| 2026-04-12 11:33 | 39.54855 | 2.73935 | 38 ft | 2 kts | 221° |
| 2026-04-12 11:33 | 39.54865 | 2.73946 | 38 ft | 2 kts | 224° |
| 2026-04-12 11:34 | 39.54878 | 2.73960 | 38 ft | 2 kts | 191° |
| 2026-04-12 11:34 | 39.54890 | 2.73963 | 36 ft | 0 kts | 176° |
| 2026-04-12 11:34 | 39.54894 | 2.73963 | 35 ft | 3 kts | 173° |
| 2026-04-12 11:34 | 39.54900 | 2.73962 | 36 ft | 0 kts | 158° |
| 2026-04-12 11:37 | 39.54893 | 2.73966 | 38 ft | 7 kts | 155° |
| 2026-04-12 11:37 | 39.54837 | 2.73997 | 38 ft | 8 kts | 175° |
| 2026-04-12 11:37 | 39.54797 | 2.73962 | 38 ft | 7 kts | 227° |
| 2026-04-12 11:38 | 39.54715 | 2.73949 | 38 ft | 15 kts | 204° |
| 2026-04-12 11:38 | 39.54658 | 2.73849 | 38 ft | 13 kts | 238° |
| 2026-04-12 11:38 | 39.54611 | 2.73752 | 38 ft | 12 kts | 237° |
| 2026-04-12 11:38 | 39.54570 | 2.73665 | 37 ft | 11 kts | 239° |
| 2026-04-12 11:39 | 39.54526 | 2.73571 | 37 ft | 14 kts | 238° |
| 2026-04-12 11:39 | 39.54477 | 2.73468 | 38 ft | 13 kts | 238° |
| 2026-04-12 11:39 | 39.54432 | 2.73374 | 38 ft | 12 kts | 238° |
| 2026-04-12 11:39 | 39.54385 | 2.73272 | 38 ft | 15 kts | 239° |
| 2026-04-12 11:40 | 39.54334 | 2.73163 | 38 ft | 13 kts | 238° |
| 2026-04-12 11:40 | 39.54288 | 2.73072 | 38 ft | 9 kts | 233° |
| 2026-04-12 11:40 | 39.54237 | 2.73050 | 38 ft | 7 kts | 161° |
| 2026-04-12 11:40 | 39.54213 | 2.73107 | 38 ft | 10 kts | 95° |
| 2026-04-12 11:41 | 39.54210 | 2.73207 | 38 ft | 12 kts | 91° |
| 2026-04-12 11:41 | 39.54208 | 2.73323 | 38 ft | 14 kts | 86° |
| 2026-04-12 11:41 | 39.54261 | 2.73454 | 38 ft | 28 kts | 58° |
| 2026-04-12 11:41 | 39.54495 | 2.73945 | 38 ft | 96 kts | 58° |
| 2026-04-12 11:42 | 39.54944 | 2.74886 | 42 ft | 147 kts | 57° |
| 2026-04-12 11:42 | 39.55491 | 2.76061 | 636 ft | 150 kts | 58° |
| 2026-04-12 11:42 | 39.56029 | 2.77247 | 1342 ft | 158 kts | 56° |
| 2026-04-12 11:43 | 39.57276 | 2.80045 | 2435 ft | 192 kts | 57° |
| 2026-04-12 11:43 | 39.57943 | 2.81545 | 3327 ft | 189 kts | 59° |
| 2026-04-12 11:43 | 39.58614 | 2.83037 | 4057 ft | 196 kts | 61° |
| 2026-04-12 11:43 | 39.59320 | 2.84573 | 4870 ft | 199 kts | 59° |
| 2026-04-12 11:44 | 39.60073 | 2.86117 | 5577 ft | 207 kts | 62° |
| 2026-04-12 11:44 | 39.60809 | 2.87681 | 6487 ft | 201 kts | 62° |
| 2026-04-12 11:44 | 39.61535 | 2.89237 | 7281 ft | 201 kts | 63° |
| 2026-04-12 11:44 | 39.62243 | 2.90797 | 8066 ft | 199 kts | 61° |
| 2026-04-12 11:45 | 39.63257 | 2.92035 | 8856 ft | 210 kts | 28° |
| 2026-04-12 11:45 | 39.64789 | 2.92169 | 9403 ft | 244 kts | 349° |
| 2026-04-12 11:45 | 39.66267 | 2.90907 | 9922 ft | 268 kts | 310° |
| 2026-04-12 11:45 | 39.67120 | 2.88702 | 10574 ft | 279 kts | 286° |
| 2026-04-12 11:46 | 39.67484 | 2.86256 | 11351 ft | 279 kts | 278° |
| 2026-04-12 11:46 | 39.67788 | 2.83764 | 12208 ft | 280 kts | 280° |
| 2026-04-12 11:46 | 39.68123 | 2.81234 | 12880 ft | 287 kts | 279° |
| 2026-04-12 11:46 | 39.68396 | 2.78654 | 13643 ft | 290 kts | 275° |
| 2026-04-12 11:47 | 39.68580 | 2.76048 | 14387 ft | 291 kts | 278° |
| 2026-04-12 11:47 | 39.69019 | 2.73485 | 15034 ft | 298 kts | 288° |
| 2026-04-12 11:47 | 39.69808 | 2.70900 | 15246 ft | 320 kts | 296° |
| 2026-04-12 11:47 | 39.70751 | 2.68163 | 15416 ft | 343 kts | 296° |
| 2026-04-12 11:48 | 39.71756 | 2.65232 | 15596 ft | 365 kts | 295° |
| 2026-04-12 11:48 | 39.72803 | 2.62170 | 16020 ft | 375 kts | 295° |
| 2026-04-12 11:48 | 39.73854 | 2.59077 | 16592 ft | 381 kts | 295° |
| 2026-04-12 11:48 | 39.74941 | 2.55867 | 17249 ft | 385 kts | 295° |
| 2026-04-12 11:49 | 39.76013 | 2.52692 | 17842 ft | 391 kts | 295° |
| 2026-04-12 11:49 | 39.77109 | 2.49442 | 18458 ft | 394 kts | 295° |
| 2026-04-12 11:49 | 39.78217 | 2.46145 | 18947 ft | 399 kts | 295° |
| 2026-04-12 11:49 | 39.79325 | 2.42831 | 19615 ft | 399 kts | 294° |
| 2026-04-12 11:50 | 39.80388 | 2.39492 | 20222 ft | 402 kts | 289° |
| 2026-04-12 11:50 | 39.80968 | 2.35913 | 20710 ft | 408 kts | 275° |
| 2026-04-12 11:50 | 39.80895 | 2.32250 | 21222 ft | 411 kts | 261° |
| 2026-04-12 11:50 | 39.80177 | 2.28654 | 21782 ft | 412 kts | 248° |
| 2026-04-12 11:51 | 39.78856 | 2.25377 | 22407 ft | 411 kts | 235° |
| 2026-04-12 11:51 | 39.77174 | 2.22343 | 22813 ft | 416 kts | 234° |
| 2026-04-12 11:51 | 39.75456 | 2.19292 | 23271 ft | 419 kts | 234° |
| 2026-04-12 11:51 | 39.73725 | 2.16231 | 23726 ft | 421 kts | 234° |
| 2026-04-12 11:52 | 39.71984 | 2.13158 | 24082 ft | 426 kts | 233° |
| 2026-04-12 11:52 | 39.70227 | 2.10049 | 24493 ft | 427 kts | 233° |
| 2026-04-12 11:52 | 39.68472 | 2.06935 | 24949 ft | 428 kts | 233° |
| 2026-04-12 11:52 | 39.66708 | 2.03803 | 25310 ft | 431 kts | 233° |
| 2026-04-12 11:53 | 39.64926 | 2.00657 | 25669 ft | 433 kts | 233° |
| 2026-04-12 11:53 | 39.63163 | 1.97547 | 26095 ft | 434 kts | 232° |
| 2026-04-12 11:53 | 39.61367 | 1.94383 | 26406 ft | 437 kts | 232° |
| 2026-04-12 11:53 | 39.59561 | 1.91199 | 26795 ft | 438 kts | 232° |
| 2026-04-12 11:54 | 39.57753 | 1.88020 | 27289 ft | 437 kts | 231° |
| 2026-04-12 11:54 | 39.55946 | 1.84838 | 27649 ft | 439 kts | 232° |
| 2026-04-12 11:54 | 39.54126 | 1.81634 | 28032 ft | 441 kts | 232° |
| 2026-04-12 11:54 | 39.52303 | 1.78429 | 28397 ft | 443 kts | 232° |
| 2026-04-12 11:55 | 39.50470 | 1.75212 | 28697 ft | 446 kts | 232° |
| 2026-04-12 11:55 | 39.48647 | 1.72021 | 29066 ft | 446 kts | 232° |
| 2026-04-12 11:55 | 39.46796 | 1.68781 | 29400 ft | 448 kts | 231° |
| 2026-04-12 11:55 | 39.44928 | 1.65514 | 29708 ft | 451 kts | 232° |
| 2026-04-12 11:56 | 39.43056 | 1.62250 | 30016 ft | 452 kts | 232° |
| 2026-04-12 11:56 | 39.41174 | 1.58979 | 30289 ft | 454 kts | 231° |
| 2026-04-12 11:56 | 39.39287 | 1.55695 | 30534 ft | 456 kts | 231° |
| 2026-04-12 11:56 | 39.37392 | 1.52391 | 30810 ft | 457 kts | 229° |
| 2026-04-12 11:57 | 39.35502 | 1.49103 | 31206 ft | 454 kts | 229° |
| 2026-04-12 11:57 | 39.33626 | 1.45835 | 31639 ft | 451 kts | 232° |
| 2026-04-12 11:57 | 39.31789 | 1.42633 | 32056 ft | 448 kts | 231° |
| 2026-04-12 11:57 | 39.29933 | 1.39407 | 32422 ft | 447 kts | 231° |
| 2026-04-12 11:58 | 39.28080 | 1.36193 | 32797 ft | 445 kts | 232° |
| 2026-04-12 11:58 | 39.26231 | 1.32990 | 33175 ft | 444 kts | 232° |
| 2026-04-12 11:58 | 39.24383 | 1.29796 | 33556 ft | 442 kts | 231° |
| 2026-04-12 11:58 | 39.22535 | 1.26625 | 33908 ft | 441 kts | 231° |
| 2026-04-12 11:59 | 39.20702 | 1.23471 | 34208 ft | 440 kts | 231° |
| 2026-04-12 11:59 | 39.18870 | 1.20315 | 34504 ft | 439 kts | 232° |
| 2026-04-12 11:59 | 39.17042 | 1.17160 | 34768 ft | 439 kts | 232° |
| 2026-04-12 11:59 | 39.15832 | 1.15074 | 34937 ft | 439 kts | 232° |
| 2026-04-12 12:00 | 39.14001 | 1.11922 | 35136 ft | 440 kts | 231° |
| 2026-04-12 12:00 | 39.12164 | 1.08769 | 35367 ft | 440 kts | 232° |
| 2026-04-12 12:00 | 39.10325 | 1.05618 | 35644 ft | 439 kts | 233° |
| 2026-04-12 12:00 | 39.08496 | 1.02483 | 35916 ft | 438 kts | 233° |
| 2026-04-12 12:01 | 39.05570 | 0.97461 | 36336 ft | 436 kts | 233° |
| 2026-04-12 12:01 | 38.98292 | 0.85019 | 36794 ft | 433 kts | 233° |
| 2026-04-12 12:01 | 38.91105 | 0.72792 | 36928 ft | 424 kts | 233° |
| 2026-04-12 12:02 | 38.78388 | 0.47644 | 36815 ft | 424 kts | 239° |
| 2026-04-12 12:02 | 38.65985 | 0.22155 | 36893 ft | 418 kts | 238° |
| 2026-04-12 12:03 | 38.53547 | -0.03224 | 36801 ft | 426 kts | 238° |
| 2026-04-12 12:03 | 38.40920 | -0.28740 | 36947 ft | 423 kts | 238° |
| 2026-04-12 12:03 | 38.34560 | -0.41544 | 36844 ft | 427 kts | 238° |
| 2026-04-12 12:04 | 38.28265 | -0.54134 | 36882 ft | 427 kts | 238° |
| 2026-04-12 12:04 | 38.18056 | -0.81339 | 36897 ft | 425 kts | 246° |
| 2026-04-12 12:05 | 38.10614 | -1.09506 | 36899 ft | 419 kts | 257° |
| 2026-04-12 12:05 | 38.07415 | -1.38940 | 36921 ft | 421 kts | 262° |
| 2026-04-12 12:06 | 38.04270 | -1.68410 | 36921 ft | 421 kts | 262° |
| 2026-04-12 12:06 | 38.01083 | -1.97693 | 36924 ft | 419 kts | 262° |
| 2026-04-12 12:07 | 37.97836 | -2.26955 | 36904 ft | 418 kts | 262° |
| 2026-04-12 12:07 | 37.94534 | -2.55885 | 36939 ft | 417 kts | 261° |
| 2026-04-12 12:08 | 37.91136 | -2.84968 | 36950 ft | 415 kts | 261° |
| 2026-04-12 12:08 | 37.87697 | -3.13859 | 36965 ft | 414 kts | 261° |
| 2026-04-12 12:09 | 37.84214 | -3.42475 | 36953 ft | 412 kts | 261° |
| 2026-04-12 12:09 | 37.80661 | -3.71098 | 36967 ft | 411 kts | 260° |
| 2026-04-12 12:10 | 37.77048 | -3.99661 | 36961 ft | 411 kts | 260° |
| 2026-04-12 12:10 | 37.73375 | -4.28053 | 36977 ft | 411 kts | 260° |
| 2026-04-12 12:11 | 37.69618 | -4.56590 | 36981 ft | 411 kts | 260° |
| 2026-04-12 12:11 | 37.65793 | -4.85008 | 36971 ft | 410 kts | 260° |
| 2026-04-12 12:12 | 37.61915 | -5.13350 | 36977 ft | 409 kts | 260° |
| 2026-04-12 12:12 | 37.58004 | -5.41449 | 36974 ft | 409 kts | 260° |
| 2026-04-12 12:13 | 37.53989 | -5.69737 | 36980 ft | 409 kts | 259° |
| 2026-04-12 12:13 | 37.49918 | -5.97953 | 36981 ft | 408 kts | 260° |
| 2026-04-12 12:14 | 37.45801 | -6.25956 | 36999 ft | 409 kts | 261° |
| 2026-04-12 12:14 | 37.41591 | -6.54101 | 36995 ft | 409 kts | 261° |
| 2026-04-12 12:15 | 37.37298 | -6.82312 | 37055 ft | 412 kts | 261° |
| 2026-04-12 12:15 | 37.32922 | -7.10637 | 37044 ft | 411 kts | 261° |
| 2026-04-12 12:16 | 37.28480 | -7.38871 | 37058 ft | 411 kts | 262° |
| 2026-04-12 12:16 | 37.23984 | -7.67038 | 37076 ft | 411 kts | 262° |
| 2026-04-12 12:17 | 37.19433 | -7.95090 | 37080 ft | 413 kts | 262° |
| 2026-04-12 12:17 | 37.14769 | -8.23373 | 37112 ft | 414 kts | 262° |
| 2026-04-12 12:18 | 37.10036 | -8.51669 | 37131 ft | 415 kts | 261° |
| 2026-04-12 12:18 | 37.05249 | -8.79811 | 37154 ft | 415 kts | 262° |
| 2026-04-12 12:19 | 37.00358 | -9.08133 | 37182 ft | 416 kts | 262° |
| 2026-04-12 12:19 | 36.95405 | -9.36442 | 37210 ft | 415 kts | 262° |
| 2026-04-12 12:20 | 36.90388 | -9.64677 | 37221 ft | 415 kts | 262° |
| 2026-04-12 12:20 | 36.85325 | -9.92688 | 37238 ft | 416 kts | 262° |
| 2026-04-12 12:21 | 36.80160 | -10.20921 | 37243 ft | 417 kts | 262° |
| 2026-04-12 12:21 | 36.74920 | -10.49176 | 37265 ft | 418 kts | 262° |
| 2026-04-12 12:22 | 36.69637 | -10.77280 | 37268 ft | 419 kts | 262° |
| 2026-04-12 12:22 | 36.64222 | -11.05592 | 37273 ft | 420 kts | 262° |
| 2026-04-12 12:23 | 36.58756 | -11.33915 | 37277 ft | 421 kts | 262° |
| 2026-04-12 12:23 | 36.53180 | -11.62268 | 37300 ft | 422 kts | 262° |
| 2026-04-12 12:24 | 36.47594 | -11.90380 | 37305 ft | 421 kts | 262° |
| 2026-04-12 12:24 | 36.41901 | -12.18672 | 37310 ft | 422 kts | 262° |
| 2026-04-12 12:25 | 36.36125 | -12.47016 | 37313 ft | 424 kts | 262° |
| 2026-04-12 12:25 | 36.30243 | -12.75400 | 37334 ft | 425 kts | 262° |
| 2026-04-12 12:26 | 36.24304 | -13.03814 | 37346 ft | 426 kts | 262° |
| 2026-04-12 12:26 | 36.18253 | -13.32264 | 37348 ft | 427 kts | 262° |
| 2026-04-12 12:27 | 36.12157 | -13.60718 | 37361 ft | 428 kts | 262° |
| 2026-04-12 12:27 | 36.06000 | -13.88986 | 37348 ft | 428 kts | 262° |
| 2026-04-12 12:28 | 35.99745 | -14.17432 | 37393 ft | 428 kts | 262° |
| 2026-04-12 12:28 | 35.93395 | -14.45827 | 37384 ft | 429 kts | 262° |
| 2026-04-12 12:29 | 35.87008 | -14.74213 | 37378 ft | 430 kts | 263° |
| 2026-04-12 12:29 | 35.80559 | -15.02449 | 37372 ft | 431 kts | 263° |
| 2026-04-12 12:30 | 35.73972 | -15.30957 | 37393 ft | 432 kts | 262° |
| 2026-04-12 12:30 | 35.67304 | -15.59467 | 37411 ft | 432 kts | 262° |
| 2026-04-12 12:31 | 35.60576 | -15.87944 | 37409 ft | 434 kts | 263° |
| 2026-04-12 12:31 | 35.53488 | -16.16235 | 37342 ft | 452 kts | 248° |
| 2026-04-12 12:31 | 35.42510 | -16.24238 | 37421 ft | 492 kts | 183° |
| 2026-04-12 12:32 | 35.28683 | -16.25319 | 37531 ft | 492 kts | 186° |
| 2026-04-12 12:32 | 35.05673 | -16.27241 | 37509 ft | 492 kts | 185° |
| 2026-04-12 12:32 | 34.87175 | -16.28727 | 37258 ft | 503 kts | 185° |
| 2026-04-12 12:33 | 34.73360 | -16.29866 | 37286 ft | 498 kts | 185° |
| 2026-04-12 12:33 | 34.59556 | -16.30983 | 37443 ft | 492 kts | 185° |
| 2026-04-12 12:33 | 34.45847 | -16.32062 | 37562 ft | 490 kts | 185° |
| 2026-04-12 12:33 | 34.32097 | -16.33175 | 37454 ft | 495 kts | 185° |
| 2026-04-12 12:34 | 34.18565 | -16.34247 | 37300 ft | 498 kts | 185° |
| 2026-04-12 12:34 | 33.91104 | -16.36436 | 37378 ft | 491 kts | 185° |
| 2026-04-12 12:34 | 33.77426 | -16.37510 | 37516 ft | 486 kts | 185° |
| 2026-04-12 12:35 | 33.63803 | -16.38580 | 37524 ft | 490 kts | 185° |
| 2026-04-12 12:35 | 33.50170 | -16.39647 | 37330 ft | 493 kts | 185° |
| 2026-04-12 12:35 | 33.36536 | -16.40733 | 37235 ft | 494 kts | 185° |
| 2026-04-12 12:35 | 33.23024 | -16.41779 | 37378 ft | 480 kts | 185° |
| 2026-04-12 12:36 | 33.09520 | -16.42831 | 37518 ft | 480 kts | 185° |
| 2026-04-12 12:36 | 32.82721 | -16.44899 | 37323 ft | 489 kts | 185° |
| 2026-04-12 12:36 | 32.69273 | -16.45938 | 37218 ft | 484 kts | 185° |
| 2026-04-12 12:37 | 32.55886 | -16.46973 | 37361 ft | 478 kts | 185° |
| 2026-04-12 12:37 | 32.42587 | -16.47997 | 37512 ft | 473 kts | 185° |
| 2026-04-12 12:37 | 32.29305 | -16.49005 | 37433 ft | 479 kts | 185° |
| 2026-04-12 12:37 | 32.16194 | -16.49987 | 37272 ft | 483 kts | 185° |
| 2026-04-12 12:38 | 32.02901 | -16.51005 | 37204 ft | 478 kts | 185° |
| 2026-04-12 12:38 | 31.89649 | -16.52002 | 37380 ft | 473 kts | 185° |
| 2026-04-12 12:38 | 31.76426 | -16.53014 | 37503 ft | 471 kts | 186° |
| 2026-04-12 12:39 | 31.50085 | -16.54986 | 37351 ft | 476 kts | 186° |
| 2026-04-12 12:39 | 31.36921 | -16.55330 | 37199 ft | 480 kts | 176° |
| 2026-04-12 12:39 | 31.23737 | -16.53918 | 37327 ft | 471 kts | 177° |
| 2026-04-12 12:39 | 31.10561 | -16.52593 | 37480 ft | 470 kts | 177° |
| 2026-04-12 12:40 | 30.97421 | -16.51253 | 37416 ft | 474 kts | 177° |
| 2026-04-12 12:40 | 30.84268 | -16.49901 | 37228 ft | 477 kts | 177° |
| 2026-04-12 12:40 | 30.71137 | -16.48568 | 37229 ft | 473 kts | 178° |
| 2026-04-12 12:40 | 30.58284 | -16.47255 | 37404 ft | 465 kts | 178° |
| 2026-04-12 12:41 | 30.45273 | -16.45933 | 37410 ft | 468 kts | 178° |
| 2026-04-12 12:41 | 30.19276 | -16.43321 | 37161 ft | 470 kts | 178° |
| 2026-04-12 12:41 | 30.06416 | -16.42013 | 37270 ft | 460 kts | 179° |
| 2026-04-12 12:42 | 29.93607 | -16.40730 | 37413 ft | 457 kts | 179° |
| 2026-04-12 12:42 | 29.68225 | -16.38194 | 37308 ft | 456 kts | 180° |
| 2026-04-12 12:42 | 29.60373 | -16.37995 | 37266 ft | 447 kts | 194° |
| 2026-04-12 12:43 | 29.54560 | -16.40111 | 37285 ft | 433 kts | 212° |
| 2026-04-12 12:43 | 29.49265 | -16.43365 | 37292 ft | 432 kts | 214° |
| 2026-04-12 12:44 | 29.43948 | -16.46604 | 37296 ft | 432 kts | 213° |
| 2026-04-12 12:44 | 29.38630 | -16.49842 | 37297 ft | 432 kts | 213° |
| 2026-04-12 12:45 | 29.33326 | -16.53083 | 37295 ft | 431 kts | 214° |
| 2026-04-12 12:45 | 29.28933 | -16.55764 | 37320 ft | 430 kts | 214° |
| 2026-04-12 12:46 | 29.23663 | -16.58991 | 37002 ft | 431 kts | 214° |
| 2026-04-12 12:46 | 29.20993 | -16.60626 | 36200 ft | 435 kts | 214° |
| 2026-04-12 12:46 | 29.18331 | -16.62250 | 35636 ft | 433 kts | 214° |
| 2026-04-12 12:47 | 29.15711 | -16.63839 | 35124 ft | 430 kts | 214° |
| 2026-04-12 12:47 | 29.13072 | -16.65437 | 34585 ft | 428 kts | 214° |
| 2026-04-12 12:47 | 29.10437 | -16.67033 | 34031 ft | 427 kts | 214° |
| 2026-04-12 12:47 | 29.07818 | -16.68622 | 33487 ft | 423 kts | 214° |
| 2026-04-12 12:48 | 29.05222 | -16.70197 | 32933 ft | 420 kts | 214° |
| 2026-04-12 12:48 | 29.02655 | -16.71756 | 32470 ft | 416 kts | 214° |
| 2026-04-12 12:48 | 29.00107 | -16.73303 | 31963 ft | 413 kts | 214° |
| 2026-04-12 12:48 | 28.97580 | -16.74833 | 31474 ft | 410 kts | 214° |
| 2026-04-12 12:49 | 28.95101 | -16.76329 | 30990 ft | 407 kts | 215° |
| 2026-04-12 12:49 | 28.92603 | -16.77836 | 30523 ft | 404 kts | 215° |
| 2026-04-12 12:49 | 28.90127 | -16.79329 | 30025 ft | 400 kts | 215° |
| 2026-04-12 12:49 | 28.87682 | -16.80805 | 29561 ft | 395 kts | 215° |
| 2026-04-12 12:50 | 28.85262 | -16.82269 | 29112 ft | 390 kts | 215° |
| 2026-04-12 12:50 | 28.82883 | -16.83709 | 28673 ft | 385 kts | 215° |
| 2026-04-12 12:50 | 28.80527 | -16.85137 | 28257 ft | 381 kts | 215° |
| 2026-04-12 12:50 | 28.78198 | -16.86547 | 27827 ft | 377 kts | 215° |
| 2026-04-12 12:51 | 28.75887 | -16.87940 | 27390 ft | 374 kts | 215° |
| 2026-04-12 12:51 | 28.73595 | -16.89318 | 26943 ft | 370 kts | 216° |
| 2026-04-12 12:51 | 28.71358 | -16.90658 | 26510 ft | 366 kts | 216° |
| 2026-04-12 12:51 | 28.69111 | -16.92004 | 26059 ft | 363 kts | 215° |
| 2026-04-12 12:52 | 28.66879 | -16.93344 | 25603 ft | 362 kts | 215° |
| 2026-04-12 12:52 | 28.64658 | -16.94683 | 25143 ft | 360 kts | 215° |
| 2026-04-12 12:52 | 28.62446 | -16.96019 | 24671 ft | 360 kts | 215° |
| 2026-04-12 12:52 | 28.60230 | -16.97358 | 24190 ft | 360 kts | 214° |
| 2026-04-12 12:53 | 28.58019 | -16.98692 | 23693 ft | 360 kts | 214° |
| 2026-04-12 12:53 | 28.55806 | -17.00024 | 23183 ft | 359 kts | 214° |
| 2026-04-12 12:53 | 28.53600 | -17.01347 | 22722 ft | 357 kts | 214° |
| 2026-04-12 12:53 | 28.51407 | -17.02658 | 22262 ft | 355 kts | 214° |
| 2026-04-12 12:54 | 28.49228 | -17.03960 | 21805 ft | 353 kts | 214° |
| 2026-04-12 12:54 | 28.47055 | -17.05264 | 21333 ft | 352 kts | 214° |
| 2026-04-12 12:54 | 28.44892 | -17.06564 | 20907 ft | 351 kts | 214° |
| 2026-04-12 12:54 | 28.42730 | -17.07864 | 20464 ft | 351 kts | 214° |
| 2026-04-12 12:55 | 28.40575 | -17.09159 | 20022 ft | 351 kts | 214° |
| 2026-04-12 12:55 | 28.38416 | -17.10451 | 19579 ft | 351 kts | 214° |
| 2026-04-12 12:55 | 28.36251 | -17.11743 | 19130 ft | 352 kts | 214° |
| 2026-04-12 12:55 | 28.34108 | -17.13022 | 18696 ft | 353 kts | 214° |
| 2026-04-12 12:56 | 28.31933 | -17.14322 | 18203 ft | 354 kts | 214° |
| 2026-04-12 12:56 | 28.29751 | -17.15625 | 17762 ft | 353 kts | 213° |
| 2026-04-12 12:56 | 28.27584 | -17.16919 | 17340 ft | 352 kts | 213° |
| 2026-04-12 12:56 | 28.25420 | -17.18210 | 16891 ft | 351 kts | 212° |
| 2026-04-12 12:57 | 28.23260 | -17.19494 | 16476 ft | 350 kts | 212° |
| 2026-04-12 12:57 | 28.21103 | -17.20777 | 16048 ft | 350 kts | 212° |
| 2026-04-12 12:57 | 28.18949 | -17.22060 | 15635 ft | 350 kts | 211° |
| 2026-04-12 12:57 | 28.16790 | -17.23346 | 15211 ft | 351 kts | 211° |
| 2026-04-12 12:58 | 28.14631 | -17.24631 | 14785 ft | 350 kts | 211° |
| 2026-04-12 12:58 | 28.12481 | -17.25911 | 14348 ft | 350 kts | 211° |
| 2026-04-12 12:58 | 28.10353 | -17.27180 | 13846 ft | 350 kts | 208° |
| 2026-04-12 12:58 | 28.08206 | -17.28454 | 13473 ft | 345 kts | 210° |
| 2026-04-12 12:59 | 28.06085 | -17.29714 | 13039 ft | 343 kts | 210° |
| 2026-04-12 12:59 | 28.03986 | -17.30964 | 12612 ft | 340 kts | 210° |
| 2026-04-12 12:59 | 28.01894 | -17.32209 | 12185 ft | 338 kts | 211° |
| 2026-04-12 12:59 | 27.99972 | -17.33718 | 11768 ft | 333 kts | 225° |
| 2026-04-12 13:00 | 27.98440 | -17.35648 | 11363 ft | 327 kts | 236° |
| 2026-04-12 13:00 | 27.97078 | -17.37704 | 10961 ft | 325 kts | 236° |
| 2026-04-12 13:00 | 27.95738 | -17.39722 | 10554 ft | 324 kts | 236° |
| 2026-04-12 13:00 | 27.94382 | -17.41760 | 10159 ft | 323 kts | 236° |
| 2026-04-12 13:01 | 27.93052 | -17.43746 | 9999 ft | 312 kts | 237° |
| 2026-04-12 13:01 | 27.91746 | -17.45694 | 9593 ft | 310 kts | 237° |
| 2026-04-12 13:01 | 27.90447 | -17.47631 | 9055 ft | 307 kts | 236° |
| 2026-04-12 13:01 | 27.89171 | -17.49540 | 8449 ft | 300 kts | 237° |
| 2026-04-12 13:02 | 27.87935 | -17.51386 | 8024 ft | 289 kts | 236° |
| 2026-04-12 13:02 | 27.86724 | -17.53197 | 7605 ft | 289 kts | 236° |
| 2026-04-12 13:02 | 27.85509 | -17.55009 | 7178 ft | 289 kts | 236° |
| 2026-04-12 13:02 | 27.84291 | -17.56825 | 6758 ft | 290 kts | 236° |
| 2026-04-12 13:03 | 27.83074 | -17.58642 | 6302 ft | 291 kts | 234° |
| 2026-04-12 13:03 | 27.81848 | -17.60475 | 5689 ft | 295 kts | 235° |
| 2026-04-12 13:03 | 27.80622 | -17.62306 | 5129 ft | 288 kts | 235° |
| 2026-04-12 13:03 | 27.79430 | -17.64085 | 4666 ft | 283 kts | 234° |
| 2026-04-12 13:04 | 27.78240 | -17.65863 | 4203 ft | 283 kts | 234° |
| 2026-04-12 13:04 | 27.77070 | -17.67613 | 3761 ft | 282 kts | 234° |
| 2026-04-12 13:04 | 27.75896 | -17.69364 | 3556 ft | 272 kts | 234° |
| 2026-04-12 13:04 | 27.74779 | -17.71022 | 3483 ft | 258 kts | 234° |
| 2026-04-12 13:05 | 27.73712 | -17.72603 | 3387 ft | 247 kts | 234° |
| 2026-04-12 13:05 | 27.72711 | -17.74088 | 3273 ft | 229 kts | 234° |
| 2026-04-12 13:05 | 27.71775 | -17.75475 | 3173 ft | 216 kts | 233° |
| 2026-04-12 13:05 | 27.70910 | -17.76763 | 3092 ft | 196 kts | 234° |
| 2026-04-12 13:06 | 27.70125 | -17.77932 | 3001 ft | 180 kts | 235° |
| 2026-04-12 13:06 | 27.69645 | -17.79151 | 2933 ft | 163 kts | 265° |
| 2026-04-12 13:06 | 27.69704 | -17.80350 | 2855 ft | 150 kts | 294° |
| 2026-04-12 13:06 | 27.70178 | -17.81339 | 2639 ft | 138 kts | 321° |
| 2026-04-12 13:07 | 27.70904 | -17.81976 | 2427 ft | 129 kts | 341° |
| 2026-04-12 13:07 | 27.71697 | -17.82460 | 2228 ft | 130 kts | 340° |
| 2026-04-12 13:07 | 27.72487 | -17.82954 | 2028 ft | 129 kts | 340° |
| 2026-04-12 13:07 | 27.73288 | -17.83450 | 1860 ft | 137 kts | 338° |
| 2026-04-12 13:08 | 27.74117 | -17.83949 | 1725 ft | 138 kts | 340° |
| 2026-04-12 13:08 | 27.75009 | -17.84477 | 1539 ft | 152 kts | 338° |
| 2026-04-12 13:08 | 27.75936 | -17.85054 | 1383 ft | 150 kts | 336° |
| 2026-04-12 13:08 | 27.76867 | -17.85597 | 1206 ft | 152 kts | 344° |
| 2026-04-12 13:09 | 27.77795 | -17.86052 | 1021 ft | 145 kts | 335° |
| 2026-04-12 13:09 | 27.78534 | -17.86849 | 806 ft | 147 kts | 326° |
| 2026-04-12 13:09 | 27.79396 | -17.87460 | 659 ft | 140 kts | 340° |
| 2026-04-12 13:09 | 27.80270 | -17.87998 | 353 ft | 152 kts | 338° |
| 2026-04-12 13:10 | 27.81167 | -17.88532 | 107 ft | 131 kts | 343° |
| 2026-04-12 13:10 | 27.81559 | -17.88731 | 101 ft | 3 kts | 343° |
| 2026-04-12 13:10 | 27.81532 | -17.88738 | 102 ft | 11 kts | 153° |
| 2026-04-12 13:10 | 27.81448 | -17.88667 | 104 ft | 10 kts | 119° |
| 2026-04-12 13:11 | 27.81458 | -17.88620 | 105 ft | 2 kts | 62° |
| 2026-04-12 13:11 | 27.81463 | -17.88594 | 105 ft | 3 kts | 101° |
| 2026-04-12 13:11 | 27.81448 | -17.88590 | 105 ft | 2 kts | 165° |
| 2026-04-12 13:11 | 27.81406 | -17.88566 | 104 ft | 8 kts | 153° |
| 2026-04-12 13:12 | 27.81356 | -17.88538 | 105 ft | 8 kts | 153° |
| 2026-04-12 13:12 | 27.81342 | -17.88530 | 105 ft | 3 kts | 151° |
| 2026-04-12 13:12 | 27.81335 | -17.88525 | 104 ft | 0 kts | 150° |